createdAt,value
2019-04-25T00:01:57.926Z,52.70
2019-04-25T00:04:27.138Z,46.75
2019-04-25T00:06:56.051Z,46.73
2019-04-25T00:09:26.451Z,46.45
2019-04-25T00:11:55.229Z,42.85
2019-04-25T00:14:25.489Z,40.52
2019-04-25T00:16:54.310Z,44.30
2019-04-25T00:19:23.107Z,40.17
2019-04-25T00:22:02.610Z,43.55
2019-04-25T00:27:11.816Z,43.38
2019-04-25T00:29:43.337Z,46.33
2019-04-25T00:32:11.707Z,41.90
2019-04-25T00:34:43.193Z,50.12
2019-04-25T00:37:12.303Z,47.43
2019-04-25T00:39:43.643Z,44.50
2019-04-25T00:42:12.288Z,44.65
2019-04-25T00:44:43.521Z,47.08
2019-04-25T00:47:11.833Z,44.33
2019-04-25T00:49:42.093Z,49.45
2019-04-25T00:52:11.609Z,46.10
2019-04-25T00:54:41.396Z,53.73
2019-04-25T00:57:12.097Z,45.40
2019-04-25T00:59:48.960Z,48.83
2019-04-25T01:02:19.387Z,45.58
2019-04-25T01:04:48.123Z,39.88
2019-04-25T01:07:16.939Z,50.35
2019-04-25T01:09:45.739Z,46.42
2019-04-25T01:12:16.263Z,43.28
2019-04-25T01:14:45.705Z,45.65
2019-04-25T01:17:15.216Z,40.65
2019-04-25T01:19:44.955Z,48.52
2019-04-25T01:22:15.194Z,43.85
2019-04-25T01:27:13.523Z,48.50
2019-04-25T01:32:11.973Z,42.58
2019-04-25T01:34:44.171Z,48.80
2019-04-25T01:37:17.102Z,40.85
2019-04-25T01:40:04.153Z,45.38
2019-04-25T01:42:37.272Z,49.60
2019-04-25T01:45:07.800Z,43.68
2019-04-25T01:47:36.542Z,48.85
2019-04-25T01:50:06.771Z,45.55
2019-04-25T01:52:35.599Z,45.10
2019-04-25T01:55:06.793Z,44.33
2019-04-25T01:57:35.612Z,49.73
2019-04-25T02:00:06.676Z,48.48
2019-04-25T02:02:35.589Z,55.92
2019-04-25T02:05:05.097Z,49.65
2019-04-25T02:07:34.133Z,48.38
2019-04-25T02:10:04.643Z,49.18
2019-04-25T02:12:40.840Z,50.50
2019-04-25T02:15:10.265Z,47.30
2019-04-25T02:17:39.111Z,50.75
2019-04-25T02:20:08.038Z,44.70
2019-04-25T02:22:36.862Z,47.08
2019-04-25T02:25:06.191Z,43.00
2019-04-25T02:27:34.938Z,43.48
2019-04-25T02:30:06.847Z,49.25
2019-04-25T02:32:37.180Z,49.40
2019-04-25T02:35:09.561Z,52.27
2019-04-25T02:37:37.264Z,43.45
2019-04-25T02:40:08.457Z,48.85
2019-04-25T02:42:37.568Z,48.20
2019-04-25T02:45:24.963Z,48.87
2019-04-25T02:47:59.628Z,50.50
2019-04-25T02:50:34.757Z,49.93
2019-04-25T02:53:08.047Z,46.37
2019-04-25T02:55:37.799Z,47.48
2019-04-25T02:58:10.036Z,45.55
2019-04-25T03:00:51.362Z,47.03
2019-04-25T03:03:08.580Z,46.42
2019-04-25T03:05:37.442Z,52.58
2019-04-25T03:08:09.059Z,55.37
2019-04-25T03:10:36.603Z,47.78
2019-04-25T03:13:10.203Z,48.33
2019-04-25T03:15:36.514Z,49.95
2019-04-25T03:25:43.527Z,48.40
2019-04-25T03:28:13.784Z,58.87
2019-04-25T03:30:44.941Z,47.80
2019-04-25T03:33:18.901Z,57.53
2019-04-25T03:35:43.480Z,49.65
2019-04-25T03:38:14.489Z,54.98
2019-04-25T03:40:43.938Z,58.87
2019-04-25T03:43:14.635Z,49.80
2019-04-25T03:45:45.145Z,59.63
2019-04-25T03:48:14.005Z,51.77
2019-04-25T03:50:44.115Z,55.43
2019-04-25T03:53:13.944Z,51.40
2019-04-25T03:55:44.334Z,60.78
2019-04-25T03:58:14.601Z,54.03
2019-04-25T04:00:44.752Z,60.48
2019-04-25T04:03:14.915Z,50.25
2019-04-25T04:05:44.248Z,59.23
2019-04-25T04:08:14.856Z,65.87
2019-04-25T04:10:43.578Z,60.73
2019-04-25T04:13:12.359Z,59.55
2019-04-25T04:15:43.295Z,54.45
2019-04-25T04:18:17.410Z,56.37
2019-04-25T04:20:59.955Z,53.40
2019-04-25T04:23:33.304Z,69.53
2019-04-25T04:26:08.263Z,58.05
2019-04-25T04:28:37.061Z,68.40
2019-04-25T04:31:06.631Z,57.65
2019-04-25T04:36:03.912Z,66.77
2019-04-25T04:38:34.140Z,75.00
2019-04-25T04:41:03.951Z,83.55
2019-04-25T04:43:36.011Z,71.82
2019-04-25T04:46:10.899Z,60.30
2019-04-25T04:48:40.211Z,54.33
2019-04-25T04:51:10.606Z,68.42
2019-04-25T04:53:39.347Z,69.00
2019-04-25T04:56:09.573Z,69.03
2019-04-25T04:58:38.499Z,61.63
2019-04-25T05:01:07.351Z,61.98
2019-04-25T05:03:44.084Z,64.97
2019-04-25T05:06:24.068Z,63.68
2019-04-25T05:08:55.416Z,64.25
2019-04-25T05:11:25.504Z,71.65
2019-04-25T05:13:54.437Z,68.60
2019-04-25T05:16:23.869Z,63.25
2019-04-25T05:21:22.608Z,73.45
2019-04-25T05:23:51.439Z,65.80
2019-04-25T05:26:21.025Z,57.33
2019-04-25T05:31:24.000Z,72.42
2019-04-25T05:33:53.667Z,78.37
2019-04-25T05:38:50.615Z,70.60
2019-04-25T05:41:26.693Z,63.45
2019-04-25T05:43:55.768Z,66.50
2019-04-25T05:46:25.411Z,69.90
2019-04-25T05:48:55.022Z,57.78
2019-04-25T05:51:24.785Z,63.65
2019-04-25T05:53:55.188Z,54.33
2019-04-25T05:56:25.837Z,66.85
2019-04-25T05:58:54.471Z,63.55
2019-04-25T06:01:24.638Z,67.70
2019-04-25T06:03:53.714Z,72.50
2019-04-25T06:06:23.638Z,72.87
2019-04-25T06:08:54.494Z,61.53
2019-04-25T06:11:25.174Z,52.65
2019-04-25T06:14:00.375Z,47.83
2019-04-25T06:16:30.811Z,55.20
2019-04-25T06:19:14.180Z,54.75
2019-04-25T06:21:37.933Z,43.90
2019-04-25T06:24:13.304Z,48.10
2019-04-25T06:26:43.694Z,46.92
2019-04-25T06:29:13.386Z,53.33
2019-04-25T06:31:43.800Z,42.67
2019-04-25T06:34:14.092Z,44.13
2019-04-25T06:36:44.068Z,46.45
2019-04-25T06:39:14.202Z,55.08
2019-04-25T06:41:44.182Z,41.90
2019-04-25T06:44:14.628Z,43.10
2019-04-25T06:47:03.376Z,47.88
2019-04-25T06:49:39.881Z,47.93
2019-04-25T06:52:08.721Z,41.85
2019-04-25T06:54:37.536Z,37.55
2019-04-25T06:57:06.318Z,42.60
2019-04-25T06:59:37.874Z,40.25
2019-04-25T07:02:05.702Z,36.05
2019-04-25T07:04:34.879Z,38.20
2019-04-25T07:07:10.504Z,31.65
2019-04-25T07:09:34.909Z,29.07
2019-04-25T07:12:04.782Z,36.35
2019-04-25T07:14:33.824Z,30.57
2019-04-25T07:17:04.384Z,26.25
2019-04-25T07:19:34.340Z,28.85
2019-04-25T07:22:03.975Z,25.77
2019-04-25T07:24:35.042Z,28.83
2019-04-25T07:27:07.395Z,29.30
2019-04-25T07:29:40.260Z,26.57
2019-04-25T07:32:30.837Z,31.77
2019-04-25T07:34:58.933Z,37.13
2019-04-25T07:37:27.707Z,25.77
2019-04-25T07:39:56.529Z,32.00
2019-04-25T07:42:26.023Z,27.95
2019-04-25T07:44:55.261Z,28.62
2019-04-25T07:47:24.337Z,36.40
2019-04-25T07:49:54.219Z,36.38
2019-04-25T07:52:23.453Z,19.48
2019-04-25T07:54:53.790Z,29.57
2019-04-25T07:57:23.798Z,63.42
2019-04-25T07:59:53.685Z,41.28
2019-04-25T08:02:23.298Z,20.82
2019-04-25T08:04:52.115Z,42.25
2019-04-25T08:07:20.891Z,34.73
2019-04-25T08:09:49.645Z,39.03
2019-04-25T08:12:18.390Z,39.65
2019-04-25T08:14:54.606Z,67.27
2019-04-25T08:17:41.319Z,29.20
2019-04-25T08:20:10.636Z,29.27
2019-04-25T08:22:54.442Z,14.87
2019-04-25T08:25:16.416Z,20.25
2019-04-25T08:27:45.013Z,17.62
2019-04-25T08:30:14.110Z,16.60
2019-04-25T08:32:44.090Z,38.90
2019-04-25T08:35:13.919Z,80.53
2019-04-25T08:37:44.151Z,22.65
2019-04-25T08:40:13.868Z,46.08
2019-04-25T08:42:44.172Z,19.57
2019-04-25T08:45:13.392Z,24.85
2019-04-25T08:47:43.802Z,19.05
2019-04-25T08:50:33.209Z,12.85
2019-04-25T08:53:00.923Z,20.25
2019-04-25T08:55:40.237Z,51.50
2019-04-25T09:00:40.481Z,24.25
2019-04-25T09:03:10.794Z,23.18
2019-04-25T09:05:46.101Z,25.70
2019-04-25T09:08:14.547Z,18.45
2019-04-25T09:10:43.736Z,26.52
2019-04-25T09:13:13.574Z,23.15
2019-04-25T09:15:44.279Z,24.47
2019-04-25T09:18:14.111Z,15.00
2019-04-25T09:20:43.760Z,28.05
2019-04-25T09:23:13.680Z,16.48
2019-04-25T09:25:44.444Z,19.62
2019-04-25T09:28:14.246Z,18.92
2019-04-25T09:30:44.550Z,19.23
2019-04-25T09:33:13.503Z,14.33
2019-04-25T09:35:42.242Z,17.23
2019-04-25T09:38:11.085Z,9.58
2019-04-25T09:40:39.807Z,13.83
2019-04-25T09:43:08.532Z,14.45
2019-04-25T09:45:45.194Z,13.48
2019-04-25T09:48:23.160Z,21.73
2019-04-25T09:51:05.684Z,23.80
2019-04-25T09:53:40.081Z,23.00
2019-04-25T09:56:07.719Z,17.52
2019-04-25T09:58:50.121Z,24.27
2019-04-25T10:01:18.928Z,19.35
2019-04-25T10:03:47.747Z,14.55
2019-04-25T10:06:18.190Z,41.10
2019-04-25T10:08:47.478Z,16.07
2019-04-25T10:11:16.446Z,18.60
2019-04-25T10:13:51.107Z,11.93
2019-04-25T10:16:19.853Z,12.47
2019-04-25T10:18:48.584Z,15.23
2019-04-25T10:21:17.868Z,16.07
2019-04-25T10:23:46.874Z,15.40
2019-04-25T10:28:45.215Z,11.43
2019-04-25T10:31:14.032Z,20.00
2019-04-25T10:33:43.751Z,18.65
2019-04-25T10:36:14.443Z,12.53
2019-04-25T10:39:01.493Z,22.60
2019-04-25T10:41:17.683Z,21.20
2019-04-25T10:43:46.615Z,17.25
2019-04-25T10:46:15.877Z,15.10
2019-04-25T10:48:44.682Z,22.37
2019-04-25T10:51:13.838Z,22.58
2019-04-25T10:53:45.405Z,14.90
2019-04-25T10:56:14.207Z,12.35
2019-04-25T10:58:44.468Z,16.00
2019-04-25T11:01:15.139Z,11.50
2019-04-25T11:03:51.697Z,28.25
2019-04-25T11:06:23.364Z,17.57
2019-04-25T11:08:55.463Z,15.28
2019-04-25T11:11:23.979Z,16.77
2019-04-25T11:13:55.583Z,17.12
2019-04-25T11:16:24.497Z,14.25
2019-04-25T11:18:54.882Z,17.02
2019-04-25T11:21:24.252Z,14.40
2019-04-25T11:23:54.998Z,15.28
2019-04-25T11:26:23.575Z,20.10
2019-04-25T11:31:23.464Z,13.20
2019-04-25T11:33:54.267Z,19.82
2019-04-25T11:36:24.777Z,12.13
2019-04-25T11:38:57.909Z,10.48
2019-04-25T11:41:26.742Z,32.42
2019-04-25T11:46:25.115Z,17.05
2019-04-25T11:51:24.043Z,21.30
2019-04-25T11:53:54.553Z,15.78
2019-04-25T11:56:24.204Z,12.20
2019-04-25T11:58:54.140Z,12.73
2019-04-25T12:01:24.322Z,12.82
2019-04-25T12:03:54.889Z,19.07
2019-04-25T12:06:24.371Z,12.65
2019-04-25T12:08:54.628Z,13.25
2019-04-25T12:11:23.781Z,18.87
2019-04-25T12:13:54.209Z,15.55
2019-04-25T12:16:24.626Z,11.78
2019-04-25T12:18:56.058Z,15.20
2019-04-25T12:21:25.535Z,14.20
2019-04-25T12:23:55.236Z,11.30
2019-04-25T12:26:26.246Z,12.63
2019-04-25T12:28:56.410Z,11.53
2019-04-25T12:31:24.907Z,14.68
2019-04-25T12:33:55.206Z,9.98
2019-04-25T12:36:24.145Z,19.00
2019-04-25T12:38:54.550Z,19.70
2019-04-25T12:41:23.266Z,11.22
2019-04-25T12:43:56.523Z,18.95
2019-04-25T12:46:26.934Z,11.25
2019-04-25T12:48:55.675Z,18.57
2019-04-25T12:51:24.450Z,10.98
2019-04-25T12:53:54.843Z,16.32
2019-04-25T12:56:24.792Z,16.25
2019-04-25T12:58:54.808Z,15.50
2019-04-25T13:01:24.893Z,10.60
2019-04-25T13:03:54.369Z,12.50
2019-04-25T13:06:24.049Z,15.95
2019-04-25T13:08:54.260Z,19.27
2019-04-25T13:11:23.946Z,13.10
2019-04-25T13:13:52.952Z,24.15
2019-04-25T13:16:21.679Z,11.83
2019-04-25T13:18:50.652Z,18.40
2019-04-25T13:21:19.392Z,14.23
2019-04-25T13:23:48.226Z,15.53
2019-04-25T13:26:18.601Z,12.18
2019-04-25T13:29:01.135Z,13.18
2019-04-25T13:31:34.488Z,11.33
2019-04-25T13:34:05.915Z,15.55
2019-04-25T13:36:35.296Z,26.75
2019-04-25T13:39:07.472Z,10.53
2019-04-25T13:41:36.215Z,13.78
2019-04-25T13:44:05.218Z,17.30
2019-04-25T13:46:34.314Z,9.68
2019-04-25T13:49:04.275Z,19.92
2019-04-25T13:51:33.342Z,18.45
2019-04-25T13:54:02.112Z,22.62
2019-04-25T13:56:30.964Z,14.93
2019-04-25T13:58:59.687Z,17.87
2019-04-25T14:03:56.886Z,21.95
2019-04-25T14:06:26.195Z,20.17
2019-04-25T14:08:54.992Z,19.62
2019-04-25T14:13:53.154Z,15.90
2019-04-25T14:16:39.491Z,15.53
2019-04-25T14:19:09.883Z,18.98
2019-04-25T14:21:38.686Z,18.37
2019-04-25T14:26:35.459Z,15.78
2019-04-25T14:29:04.361Z,21.52
2019-04-25T14:34:03.275Z,20.08
2019-04-25T14:36:33.269Z,26.05
2019-04-25T14:39:01.973Z,18.40
2019-04-25T14:41:30.733Z,16.27
2019-04-25T14:43:59.443Z,20.10
2019-04-25T14:46:28.387Z,14.87
2019-04-25T14:48:57.215Z,18.57
2019-04-25T14:56:33.617Z,11.83
2019-04-25T14:59:02.603Z,22.13
2019-04-25T15:01:43.181Z,16.93
2019-04-25T15:04:01.978Z,11.15
2019-04-25T15:08:58.700Z,22.60
2019-04-25T15:11:27.495Z,18.77
2019-04-25T15:13:56.306Z,15.00
2019-04-25T15:16:25.109Z,23.15
2019-04-25T15:18:53.863Z,16.20
2019-04-25T15:21:22.583Z,15.85
2019-04-25T15:23:59.941Z,13.62
2019-04-25T15:26:21.704Z,22.20
2019-04-25T15:28:50.628Z,20.80
2019-04-25T15:31:19.412Z,16.02
2019-04-25T15:33:48.318Z,29.52
2019-04-25T15:36:18.719Z,20.27
2019-04-25T15:39:01.083Z,21.73
2019-04-25T15:41:43.483Z,16.12
2019-04-25T15:44:30.907Z,27.45
2019-04-25T15:47:01.355Z,26.48
2019-04-25T15:49:30.076Z,23.15
2019-04-25T15:51:58.789Z,17.32
2019-04-25T15:54:29.619Z,22.98
2019-04-25T15:56:58.305Z,19.32
2019-04-25T15:59:27.425Z,25.52
2019-04-25T16:04:25.703Z,26.77
2019-04-25T16:06:54.487Z,21.02
2019-04-25T16:09:23.338Z,20.60
2019-04-25T16:11:52.112Z,19.23
2019-04-25T16:14:20.865Z,25.62
2019-04-25T16:16:49.683Z,23.95
2019-04-25T16:19:19.565Z,16.12
2019-04-25T16:21:48.315Z,22.22
2019-04-25T16:24:17.122Z,15.40
2019-04-25T16:26:45.859Z,23.65
2019-04-25T16:29:14.582Z,25.00
2019-04-25T16:31:43.396Z,23.65
2019-04-25T16:34:12.198Z,22.00
2019-04-25T16:36:41.794Z,16.35
2019-04-25T16:39:12.412Z,22.90
2019-04-25T16:41:42.546Z,24.43
2019-04-25T16:44:12.990Z,23.32
2019-04-25T16:46:42.763Z,28.50
2019-04-25T16:49:12.315Z,30.57
2019-04-25T16:51:42.340Z,23.50
2019-04-25T16:54:11.215Z,26.42
2019-04-25T16:56:39.953Z,29.27
2019-04-25T16:59:08.943Z,30.82
2019-04-25T17:01:38.975Z,22.52
2019-04-25T17:04:09.411Z,23.62
2019-04-25T17:06:39.223Z,19.35
2019-04-25T17:09:08.866Z,31.17
2019-04-25T17:11:39.304Z,30.65
2019-04-25T17:14:09.666Z,28.77
2019-04-25T17:16:55.755Z,27.22
2019-04-25T17:19:39.591Z,20.72
2019-04-25T17:22:08.559Z,31.48
2019-04-25T17:24:37.267Z,30.90
2019-04-25T17:27:07.194Z,37.70
2019-04-25T17:29:36.102Z,46.98
2019-04-25T17:32:23.450Z,40.40
2019-04-25T17:34:53.955Z,36.42
2019-04-25T17:37:25.099Z,37.28
2019-04-25T17:39:55.524Z,30.77
2019-04-25T17:42:24.652Z,32.50
2019-04-25T17:44:53.556Z,31.00
2019-04-25T17:47:23.836Z,34.90
2019-04-25T17:49:54.843Z,41.13
2019-04-25T17:52:23.958Z,47.35
2019-04-25T17:54:52.970Z,37.88
2019-04-25T17:57:21.790Z,36.50
2019-04-25T17:59:51.432Z,40.38
2019-04-25T18:02:20.343Z,33.53
2019-04-25T18:04:49.250Z,33.15
2019-04-25T18:07:18.645Z,33.02
2019-04-25T18:09:47.452Z,32.17
2019-04-25T18:12:17.049Z,33.92
2019-04-25T18:14:46.894Z,33.23
2019-04-25T18:17:15.858Z,29.37
2019-04-25T18:19:46.314Z,42.85
2019-04-25T18:22:22.991Z,35.45
2019-04-25T18:24:56.346Z,32.42
2019-04-25T18:27:26.779Z,34.92
2019-04-25T18:30:02.220Z,35.00
2019-04-25T18:32:32.679Z,37.03
2019-04-25T18:35:03.155Z,41.77
2019-04-25T18:37:37.286Z,43.10
2019-04-25T18:40:08.453Z,36.05
2019-04-25T18:42:51.983Z,40.60
2019-04-25T18:45:22.347Z,52.17
2019-04-25T18:48:59.508Z,42.58
2019-04-25T18:51:29.835Z,34.35
2019-04-25T18:54:00.258Z,43.52
2019-04-25T18:56:33.342Z,49.63
2019-04-25T18:59:20.212Z,53.48
2019-04-25T19:01:56.417Z,40.33
2019-04-25T19:04:26.975Z,52.00
2019-04-25T19:06:58.294Z,36.48
2019-04-25T19:09:26.376Z,44.25
2019-04-25T19:11:55.187Z,48.15
2019-04-25T19:14:24.000Z,44.30
2019-04-25T19:16:52.827Z,39.20
2019-04-25T19:19:21.542Z,42.43
2019-04-25T19:21:50.378Z,39.30
2019-04-25T19:24:19.108Z,42.40
2019-04-25T19:26:48.054Z,39.75
2019-04-25T19:29:17.197Z,44.93
2019-04-25T19:31:46.338Z,27.73
2019-04-25T19:36:43.223Z,38.60
2019-04-25T19:39:16.743Z,38.63
2019-04-25T19:41:49.754Z,50.10
2019-04-25T19:44:23.041Z,36.75
2019-04-25T19:46:51.765Z,37.42
2019-04-25T19:49:22.637Z,36.90
2019-04-25T19:51:51.939Z,31.52
2019-04-25T19:54:20.839Z,23.80
2019-04-25T19:56:49.691Z,28.20
2019-04-25T19:59:18.430Z,29.80
2019-04-25T20:01:48.086Z,39.08
2019-04-25T20:04:18.629Z,28.45
2019-04-25T20:07:05.378Z,30.82
2019-04-25T20:09:44.883Z,36.50
2019-04-25T20:12:14.112Z,36.13
2019-04-25T20:14:43.953Z,36.23
2019-04-25T20:17:12.955Z,39.20
2019-04-25T20:19:41.701Z,35.55
2019-04-25T20:22:10.518Z,37.00
2019-04-25T20:24:39.272Z,35.28
2019-04-25T20:27:08.027Z,45.33
2019-04-25T20:29:36.760Z,36.70
2019-04-25T20:32:07.116Z,45.75
2019-04-25T20:34:36.033Z,34.88
2019-04-25T20:37:04.876Z,41.77
2019-04-25T20:39:33.647Z,33.40
2019-04-25T20:42:02.444Z,39.42
2019-04-25T20:44:31.187Z,36.77
2019-04-25T20:46:59.997Z,26.73
2019-04-25T20:49:28.755Z,31.62
2019-04-25T20:51:57.559Z,35.83
2019-04-25T20:54:26.296Z,33.42
2019-04-25T20:56:55.161Z,35.13
2019-04-25T20:59:24.156Z,40.30
2019-04-25T21:01:53.595Z,30.32
2019-04-25T21:04:42.524Z,31.42
2019-04-25T21:07:11.323Z,32.65
2019-04-25T21:09:40.392Z,28.57
2019-04-25T21:12:09.396Z,27.25
2019-04-25T21:14:39.786Z,37.90
2019-04-25T21:17:10.176Z,34.70
2019-04-25T21:19:43.248Z,26.23
2019-04-25T21:22:12.009Z,38.08
2019-04-25T21:24:40.757Z,36.58
2019-04-25T21:27:09.494Z,43.73
2019-04-25T21:29:38.218Z,32.65
2019-04-25T21:32:07.032Z,32.13
2019-04-25T21:34:35.873Z,27.37
2019-04-25T21:39:42.579Z,34.27
2019-04-25T21:42:16.094Z,26.30
2019-04-25T21:44:45.153Z,36.73
2019-04-25T21:47:13.962Z,39.88
2019-04-25T21:49:43.119Z,33.70
2019-04-25T21:52:11.916Z,36.68
2019-04-25T21:54:40.969Z,28.95
2019-04-25T21:57:19.022Z,35.35
2019-04-25T21:59:58.980Z,43.20
2019-04-25T22:02:19.297Z,36.10
2019-04-25T22:04:48.250Z,33.05
2019-04-25T22:07:17.250Z,34.33
2019-04-25T22:09:48.062Z,47.95
2019-04-25T22:12:17.359Z,35.75
2019-04-25T22:14:46.095Z,31.97
2019-04-25T22:17:14.922Z,40.48
2019-04-25T22:19:43.993Z,29.80
2019-04-25T22:22:22.020Z,36.30
2019-04-25T22:24:49.564Z,36.53
2019-04-25T22:27:19.972Z,31.48
2019-04-25T22:29:50.426Z,29.37
2019-04-25T22:32:20.865Z,35.25
2019-04-25T22:35:01.550Z,43.40
2019-04-25T22:37:30.709Z,39.05
2019-04-25T22:39:59.899Z,29.12
2019-04-25T22:42:28.745Z,26.82
2019-04-25T22:44:57.523Z,28.47
2019-04-25T22:47:26.361Z,27.82
2019-04-25T22:49:55.141Z,34.48
2019-04-25T22:52:24.133Z,26.60
2019-04-25T22:54:52.983Z,34.88
2019-04-25T22:57:22.105Z,44.33
2019-04-25T22:59:50.937Z,34.73
2019-04-25T23:02:30.290Z,40.98
2019-04-25T23:05:08.967Z,38.60
2019-04-25T23:07:31.399Z,29.23
2019-04-25T23:10:00.635Z,34.00
2019-04-25T23:12:30.998Z,33.23
2019-04-25T23:14:59.750Z,30.68
2019-04-25T23:17:28.567Z,30.65
2019-04-25T23:19:57.596Z,35.50
2019-04-25T23:22:26.345Z,34.23
2019-04-25T23:24:56.954Z,32.60
2019-04-25T23:27:30.350Z,29.90
2019-04-25T23:29:59.185Z,32.60
2019-04-25T23:32:28.419Z,36.20
2019-04-25T23:34:57.174Z,29.98
2019-04-25T23:37:25.909Z,29.12
2019-04-25T23:39:54.658Z,26.87
2019-04-25T23:42:23.382Z,29.55
2019-04-25T23:44:52.432Z,22.75
2019-04-25T23:47:21.146Z,34.67
2019-04-25T23:49:52.058Z,32.13
2019-04-25T23:52:21.271Z,26.93
2019-04-25T23:54:50.058Z,21.93
2019-04-25T23:57:19.097Z,24.65
2019-04-25T23:59:47.821Z,26.15
